createdAt,value
2024-05-09T00:00:18.157Z,13.14
2024-05-09T00:02:44.243Z,13.11
2024-05-09T00:05:06.239Z,13.08
2024-05-09T00:07:28.112Z,13.05
2024-05-09T00:09:49.932Z,13.04
2024-05-09T00:12:11.851Z,13.00
2024-05-09T00:14:33.772Z,12.98
2024-05-09T00:16:55.685Z,12.95
2024-05-09T00:19:17.624Z,12.91
2024-05-09T00:21:45.430Z,12.87
2024-05-09T00:24:07.241Z,12.84
2024-05-09T00:26:29.220Z,12.79
2024-05-09T00:28:51.173Z,12.75
2024-05-09T00:31:18.129Z,12.71
2024-05-09T00:33:40.187Z,12.69
2024-05-09T00:36:02.226Z,12.68
2024-05-09T00:38:24.082Z,12.67
2024-05-09T00:40:46.024Z,12.64
2024-05-09T00:43:08.047Z,12.61
2024-05-09T00:45:29.832Z,12.60
2024-05-09T00:47:53.985Z,12.62
2024-05-09T00:50:22.729Z,12.60
2024-05-09T00:52:51.529Z,12.58
2024-05-09T00:55:16.818Z,12.57
2024-05-09T00:57:39.859Z,12.56
2024-05-09T01:00:01.995Z,12.53
2024-05-09T01:02:23.954Z,12.51
2024-05-09T01:04:45.997Z,12.51
2024-05-09T01:07:11.128Z,12.49
2024-05-09T01:09:33.187Z,12.47
2024-05-09T01:11:55.132Z,12.45
2024-05-09T01:14:17.055Z,12.44
2024-05-09T01:16:40.075Z,12.46
2024-05-09T01:19:04.598Z,12.46
2024-05-09T01:21:26.602Z,12.44
2024-05-09T01:23:48.491Z,12.41
2024-05-09T01:26:10.416Z,12.41
2024-05-09T01:28:32.261Z,12.38
2024-05-09T01:30:54.240Z,12.34
2024-05-09T01:33:16.292Z,12.30
2024-05-09T01:35:41.357Z,12.29
2024-05-09T01:38:04.412Z,12.27
2024-05-09T01:40:36.190Z,12.26
2024-05-09T01:43:01.665Z,12.24
2024-05-09T01:45:23.641Z,12.22
2024-05-09T01:47:45.678Z,12.21
2024-05-09T01:50:10.716Z,12.18
2024-05-09T01:52:36.656Z,12.17
2024-05-09T01:55:00.105Z,12.14
2024-05-09T01:57:23.980Z,12.13
2024-05-09T01:59:45.810Z,12.15
2024-05-09T02:02:07.732Z,12.14
2024-05-09T02:04:30.618Z,12.13
2024-05-09T02:06:54.921Z,12.11
2024-05-09T02:09:16.748Z,12.09
2024-05-09T02:11:48.087Z,12.08
2024-05-09T02:14:11.197Z,12.06
2024-05-09T02:16:33.204Z,12.05
2024-05-09T02:18:55.080Z,12.06
2024-05-09T02:21:16.997Z,12.04
2024-05-09T02:23:39.046Z,12.03
2024-05-09T02:26:00.879Z,12.02
2024-05-09T02:28:22.760Z,12.01
2024-05-09T02:30:44.561Z,12.01
2024-05-09T02:33:08.591Z,11.98
2024-05-09T02:35:31.106Z,11.96
2024-05-09T02:37:53.070Z,11.94
2024-05-09T02:40:25.169Z,11.92
2024-05-09T02:42:50.896Z,11.88
2024-05-09T02:45:12.825Z,11.86
2024-05-09T02:47:34.821Z,11.84
2024-05-09T02:49:58.828Z,11.81
2024-05-09T02:52:21.977Z,11.77
2024-05-09T02:54:43.930Z,11.78
2024-05-09T02:57:06.051Z,11.73
2024-05-09T02:59:28.048Z,11.71
2024-05-09T03:01:49.980Z,11.69
2024-05-09T03:04:12.016Z,11.66
2024-05-09T03:06:33.906Z,11.64
2024-05-09T03:08:55.810Z,11.61
2024-05-09T03:11:24.986Z,11.59
2024-05-09T03:13:47.011Z,11.56
2024-05-09T03:16:08.829Z,11.53
2024-05-09T03:18:30.776Z,11.52
2024-05-09T03:20:52.683Z,11.52
2024-05-09T03:23:14.538Z,11.51
2024-05-09T03:25:36.388Z,11.49
2024-05-09T03:27:58.303Z,11.47
2024-05-09T03:30:26.206Z,11.46
2024-05-09T03:32:57.524Z,11.44
2024-05-09T03:35:19.594Z,11.43
2024-05-09T03:37:41.546Z,11.42
2024-05-09T03:40:07.363Z,11.41
2024-05-09T03:42:33.458Z,11.39
2024-05-09T03:44:55.238Z,11.36
2024-05-09T03:47:17.976Z,11.35
2024-05-09T03:49:39.956Z,11.34
2024-05-09T03:52:05.324Z,11.31
2024-05-09T03:54:27.760Z,11.30
2024-05-09T03:56:49.539Z,11.31
2024-05-09T03:59:11.392Z,11.30
2024-05-09T04:01:33.397Z,11.30
2024-05-09T04:03:56.012Z,11.29
2024-05-09T04:06:24.030Z,11.30
2024-05-09T04:08:46.027Z,11.30
2024-05-09T04:11:07.946Z,11.29
2024-05-09T04:13:29.796Z,11.29
2024-05-09T04:15:52.568Z,11.29
2024-05-09T04:18:17.856Z,11.28
2024-05-09T04:20:41.188Z,11.28
2024-05-09T04:23:03.681Z,11.29
2024-05-09T04:25:25.613Z,11.26
2024-05-09T04:27:47.487Z,11.28
2024-05-09T04:30:18.432Z,11.24
2024-05-09T04:32:44.149Z,11.27
2024-05-09T04:35:06.458Z,11.27
2024-05-09T04:37:30.174Z,11.26
2024-05-09T04:39:52.041Z,11.27
2024-05-09T04:42:14.910Z,11.29
2024-05-09T04:44:36.758Z,11.29
2024-05-09T04:46:58.759Z,11.30
2024-05-09T04:49:20.908Z,11.33
2024-05-09T04:51:42.785Z,11.35
2024-05-09T04:54:05.542Z,11.39
2024-05-09T04:56:27.710Z,11.45
2024-05-09T04:58:50.453Z,11.49
2024-05-09T05:01:12.360Z,11.53
2024-05-09T05:03:34.451Z,11.57
2024-05-09T05:05:56.630Z,11.66
2024-05-09T05:08:19.580Z,11.74
2024-05-09T05:10:42.811Z,11.82
2024-05-09T05:13:22.849Z,11.89
2024-05-09T05:15:46.942Z,11.97
2024-05-09T05:18:08.944Z,12.03
2024-05-09T05:20:33.741Z,12.09
2024-05-09T05:22:57.477Z,12.19
2024-05-09T05:25:19.316Z,12.28
2024-05-09T05:27:41.168Z,12.40
2024-05-09T05:30:03.544Z,12.50
2024-05-09T05:32:27.712Z,12.57
2024-05-09T05:34:49.713Z,12.63
2024-05-09T05:37:11.600Z,12.71
2024-05-09T05:39:33.418Z,12.78
2024-05-09T05:41:56.767Z,12.87
2024-05-09T05:44:18.741Z,12.94
2024-05-09T05:46:40.562Z,12.99
2024-05-09T05:49:02.422Z,13.08
2024-05-09T05:51:24.328Z,13.15
2024-05-09T05:53:46.366Z,13.23
2024-05-09T05:56:08.337Z,13.30
2024-05-09T05:58:30.173Z,13.38
2024-05-09T06:00:53.634Z,13.44
2024-05-09T06:03:15.879Z,13.53
2024-05-09T06:05:40.233Z,13.60
2024-05-09T06:08:02.679Z,13.68
2024-05-09T06:10:30.020Z,13.72
2024-05-09T06:12:59.959Z,13.80
2024-05-09T06:15:21.749Z,13.85
2024-05-09T06:17:43.830Z,13.91
2024-05-09T06:20:13.267Z,13.99
2024-05-09T06:22:38.812Z,14.08
2024-05-09T06:25:00.610Z,14.16
2024-05-09T06:27:22.422Z,14.31
2024-05-09T06:29:44.290Z,14.41
2024-05-09T06:32:06.850Z,14.49
2024-05-09T06:34:28.933Z,14.58
2024-05-09T06:36:50.840Z,14.67
2024-05-09T06:39:12.669Z,14.76
2024-05-09T06:41:34.519Z,14.91
2024-05-09T06:43:56.518Z,15.03
2024-05-09T06:46:18.674Z,15.12
2024-05-09T06:48:42.834Z,15.18
2024-05-09T06:51:05.313Z,15.26
2024-05-09T06:53:27.448Z,15.36
2024-05-09T06:55:49.988Z,15.49
2024-05-09T06:58:12.029Z,15.63
2024-05-09T07:00:39.088Z,15.77
2024-05-09T07:03:08.520Z,15.91
2024-05-09T07:05:30.632Z,15.99
2024-05-09T07:07:52.489Z,16.10
2024-05-09T07:10:21.951Z,16.21
2024-05-09T07:12:50.335Z,16.32
2024-05-09T07:15:12.177Z,16.47
2024-05-09T07:17:34.146Z,16.69
2024-05-09T07:19:56.191Z,16.91
2024-05-09T07:22:18.181Z,17.16
2024-05-09T07:24:40.101Z,17.38
2024-05-09T07:27:01.948Z,17.57
2024-05-09T07:29:24.001Z,17.72
2024-05-09T07:31:45.851Z,17.84
2024-05-09T07:34:07.839Z,17.91
2024-05-09T07:36:29.772Z,17.98
2024-05-09T07:38:51.751Z,18.01
2024-05-09T07:41:14.611Z,18.04
2024-05-09T07:43:37.840Z,18.14
2024-05-09T07:46:37.781Z,18.30
2024-05-09T07:53:40.466Z,18.94
2024-05-09T07:56:07.202Z,19.17
2024-05-09T07:58:29.516Z,19.41
2024-05-09T08:00:51.487Z,19.62
2024-05-09T08:03:13.360Z,19.78
2024-05-09T08:05:35.564Z,19.98
2024-05-09T08:07:57.594Z,20.08
2024-05-09T08:10:24.459Z,20.22
2024-05-09T08:12:49.172Z,20.32
2024-05-09T08:15:11.917Z,20.44
2024-05-09T08:17:33.814Z,20.58
2024-05-09T08:19:56.264Z,20.72
2024-05-09T08:22:18.211Z,20.86
2024-05-09T08:24:40.204Z,20.99
2024-05-09T08:27:02.356Z,21.08
2024-05-09T08:29:24.199Z,21.11
2024-05-09T08:31:46.068Z,21.16
2024-05-09T08:34:07.988Z,21.18
2024-05-09T08:36:29.944Z,21.13
2024-05-09T08:38:51.851Z,20.89
2024-05-09T08:41:15.698Z,20.88
2024-05-09T08:43:39.890Z,21.01
2024-05-09T08:46:07.350Z,21.15
2024-05-09T08:48:34.294Z,21.32
2024-05-09T08:50:59.442Z,21.46
2024-05-09T08:53:21.646Z,21.62
2024-05-09T08:55:46.025Z,21.77
2024-05-09T08:58:12.575Z,21.93
2024-05-09T09:00:38.381Z,21.98
2024-05-09T09:03:03.032Z,22.07
2024-05-09T09:05:31.267Z,22.10
2024-05-09T09:07:53.361Z,22.00
2024-05-09T09:10:28.841Z,21.99
2024-05-09T09:13:00.133Z,21.94
2024-05-09T09:15:23.613Z,21.83
2024-05-09T09:17:58.864Z,21.86
2024-05-09T09:20:26.420Z,21.83
2024-05-09T09:22:55.719Z,21.84
2024-05-09T09:25:17.614Z,21.94
2024-05-09T09:27:39.672Z,22.05
2024-05-09T09:30:02.881Z,22.08
2024-05-09T09:32:29.014Z,22.17
2024-05-09T09:34:52.303Z,22.37
2024-05-09T09:37:19.191Z,22.48
2024-05-09T09:39:42.089Z,22.47
2024-05-09T09:42:05.691Z,22.45
2024-05-09T09:44:30.595Z,22.50
2024-05-09T09:46:58.978Z,22.38
2024-05-09T09:49:23.716Z,22.51
2024-05-09T09:51:47.262Z,22.72
2024-05-09T09:54:10.171Z,22.94
2024-05-09T09:56:35.284Z,23.14
2024-05-09T09:58:58.842Z,23.37
2024-05-09T10:01:20.923Z,23.52
2024-05-09T10:03:43.113Z,23.68
2024-05-09T10:06:07.646Z,23.81
2024-05-09T10:08:29.922Z,24.00
2024-05-09T10:10:51.995Z,24.02
2024-05-09T10:13:14.269Z,24.15
2024-05-09T10:15:50.771Z,24.20
2024-05-09T10:18:13.145Z,24.18
2024-05-09T10:20:42.740Z,23.99
2024-05-09T10:23:05.483Z,23.95
2024-05-09T10:25:27.405Z,23.94
2024-05-09T10:27:55.983Z,23.93
2024-05-09T10:30:29.926Z,23.91
2024-05-09T10:32:57.737Z,23.73
2024-05-09T10:35:21.260Z,23.72
2024-05-09T10:37:43.756Z,23.80
2024-05-09T10:40:12.035Z,23.67
2024-05-09T10:42:39.335Z,23.31
2024-05-09T10:45:02.227Z,22.97
2024-05-09T10:47:25.164Z,22.69
2024-05-09T10:49:49.128Z,22.48
2024-05-09T10:52:11.142Z,22.40
2024-05-09T10:54:39.750Z,22.35
2024-05-09T10:57:01.609Z,22.36
2024-05-09T10:59:24.435Z,22.22
2024-05-09T11:01:46.430Z,22.04
2024-05-09T11:04:08.648Z,22.02
2024-05-09T11:06:31.065Z,22.38
2024-05-09T11:08:53.355Z,22.53
2024-05-09T11:11:16.488Z,22.83
2024-05-09T11:13:40.712Z,23.11
2024-05-09T11:16:04.163Z,23.28
2024-05-09T11:18:30.760Z,23.63
2024-05-09T11:20:57.131Z,23.92
2024-05-09T11:23:21.817Z,23.83
2024-05-09T11:25:52.377Z,24.07
2024-05-09T11:28:14.417Z,24.34
2024-05-09T11:30:36.440Z,24.67
2024-05-09T11:32:58.924Z,24.82
2024-05-09T11:35:21.080Z,24.81
2024-05-09T11:37:42.981Z,24.64
2024-05-09T11:40:11.426Z,24.47
2024-05-09T11:42:35.548Z,24.26
2024-05-09T11:44:57.395Z,24.25
2024-05-09T11:47:21.633Z,24.37
2024-05-09T11:49:43.788Z,24.56
2024-05-09T11:52:05.876Z,24.71
2024-05-09T11:54:27.853Z,25.00
2024-05-09T11:56:51.682Z,25.20
2024-05-09T11:59:13.557Z,25.38
2024-05-09T12:01:35.624Z,25.52
2024-05-09T12:03:57.812Z,25.68
2024-05-09T12:06:20.340Z,25.87
2024-05-09T12:08:42.206Z,25.98
2024-05-09T12:11:04.528Z,26.12
2024-05-09T12:13:26.528Z,26.14
2024-05-09T12:15:48.508Z,26.20
2024-05-09T12:18:10.797Z,26.22
2024-05-09T12:20:38.383Z,25.99
2024-05-09T12:23:01.999Z,25.57
2024-05-09T12:25:23.842Z,25.25
2024-05-09T12:27:46.763Z,24.89
2024-05-09T12:30:11.558Z,24.55
2024-05-09T12:32:36.205Z,24.13
2024-05-09T12:34:58.097Z,23.80
2024-05-09T12:37:20.150Z,23.63
2024-05-09T12:39:42.062Z,23.49
2024-05-09T12:42:04.516Z,23.35
2024-05-09T12:44:26.344Z,23.36
2024-05-09T12:46:48.654Z,23.50
2024-05-09T12:49:10.816Z,23.56
2024-05-09T12:51:34.323Z,23.58
2024-05-09T12:53:56.243Z,23.52
2024-05-09T12:56:18.513Z,23.53
2024-05-09T12:58:40.426Z,23.60
2024-05-09T13:01:02.305Z,23.64
2024-05-09T13:03:25.989Z,23.63
2024-05-09T13:05:49.876Z,23.60
2024-05-09T13:08:13.382Z,23.50
2024-05-09T13:10:35.653Z,23.40
2024-05-09T13:12:57.684Z,23.33
2024-05-09T13:15:19.629Z,23.30
2024-05-09T13:17:41.753Z,23.22
2024-05-09T13:20:05.607Z,23.18
2024-05-09T13:22:27.570Z,23.12
2024-05-09T13:24:49.636Z,23.07
2024-05-09T13:27:11.703Z,23.01
2024-05-09T13:29:33.579Z,23.04
2024-05-09T13:31:55.432Z,23.16
2024-05-09T13:34:17.487Z,23.30
2024-05-09T13:36:39.810Z,23.30
2024-05-09T13:39:02.209Z,23.28
2024-05-09T13:41:24.210Z,23.29
2024-05-09T13:43:46.002Z,23.25
2024-05-09T13:46:08.437Z,23.13
2024-05-09T13:48:31.028Z,23.02
2024-05-09T13:50:53.094Z,22.96
2024-05-09T13:53:15.042Z,22.97
2024-05-09T13:55:40.761Z,22.95
2024-05-09T13:58:03.259Z,22.91
2024-05-09T14:02:50.103Z,22.85
2024-05-09T14:05:12.114Z,22.88
2024-05-09T14:07:34.112Z,22.89
2024-05-09T14:09:56.121Z,22.86
2024-05-09T14:12:18.191Z,22.78
2024-05-09T14:14:40.051Z,22.75
2024-05-09T14:17:01.976Z,22.65
2024-05-09T14:19:23.902Z,22.58
2024-05-09T14:21:45.894Z,22.48
2024-05-09T14:24:07.864Z,22.38
2024-05-09T14:26:29.865Z,22.32
2024-05-09T14:28:51.849Z,22.35
2024-05-09T14:31:13.750Z,22.37
2024-05-09T14:33:36.648Z,22.35
2024-05-09T14:35:58.935Z,22.33
2024-05-09T14:38:21.058Z,22.28
2024-05-09T14:40:44.166Z,22.16
2024-05-09T14:43:06.240Z,22.12
2024-05-09T14:45:28.486Z,22.13
2024-05-09T14:47:50.944Z,22.07
2024-05-09T14:50:19.588Z,21.99
2024-05-09T14:52:49.354Z,21.92
2024-05-09T14:55:12.342Z,21.82
2024-05-09T14:57:35.430Z,21.73
2024-05-09T14:59:57.320Z,21.65
2024-05-09T15:02:19.369Z,21.56
2024-05-09T15:04:41.543Z,21.51
2024-05-09T15:07:04.061Z,21.50
2024-05-09T15:09:26.579Z,21.48
2024-05-09T15:11:48.512Z,21.44
2024-05-09T15:14:10.305Z,21.38
2024-05-09T15:16:32.356Z,21.36
2024-05-09T15:18:54.569Z,21.31
2024-05-09T15:21:16.501Z,21.26
2024-05-09T15:23:38.356Z,21.24
2024-05-09T15:26:00.458Z,21.18
2024-05-09T15:28:22.684Z,21.12
2024-05-09T15:30:46.560Z,21.13
2024-05-09T15:33:08.920Z,21.14
2024-05-09T15:35:31.619Z,21.13
2024-05-09T15:37:53.709Z,21.14
2024-05-09T15:40:25.994Z,21.14
2024-05-09T15:42:56.939Z,21.10
2024-05-09T15:45:18.918Z,21.11
2024-05-09T15:47:40.954Z,21.13
2024-05-09T15:50:03.555Z,21.21
2024-05-09T15:52:25.631Z,21.26
2024-05-09T15:54:47.532Z,21.31
2024-05-09T15:57:09.998Z,21.36
2024-05-09T15:59:31.994Z,21.40
2024-05-09T16:01:54.503Z,21.46
2024-05-09T16:04:16.696Z,21.53
2024-05-09T16:06:39.702Z,21.63
2024-05-09T16:09:01.988Z,21.74
2024-05-09T16:11:24.288Z,21.87
2024-05-09T16:13:46.157Z,22.11
2024-05-09T16:16:08.420Z,22.38
2024-05-09T16:18:30.409Z,22.53
2024-05-09T16:20:59.546Z,22.60
2024-05-09T16:23:21.361Z,22.71
2024-05-09T16:25:46.096Z,22.74
2024-05-09T16:28:10.486Z,22.84
2024-05-09T16:30:35.445Z,22.93
2024-05-09T16:32:58.360Z,22.91
2024-05-09T16:35:20.263Z,22.97
2024-05-09T16:37:42.173Z,23.04
2024-05-09T16:40:05.868Z,22.99
2024-05-09T16:42:31.368Z,22.90
2024-05-09T16:44:53.691Z,22.83
2024-05-09T16:47:15.747Z,22.77
2024-05-09T16:49:37.598Z,22.69
2024-05-09T16:51:59.694Z,22.62
2024-05-09T16:54:21.566Z,22.51
2024-05-09T16:56:43.562Z,22.53
2024-05-09T16:59:05.623Z,22.50
2024-05-09T17:01:28.858Z,22.44
2024-05-09T17:03:51.001Z,22.38
2024-05-09T17:06:13.341Z,22.36
2024-05-09T17:08:37.020Z,22.38
2024-05-09T17:10:59.279Z,22.41
2024-05-09T17:13:22.745Z,22.46
2024-05-09T17:15:45.354Z,22.46
2024-05-09T17:18:07.796Z,22.40
2024-05-09T17:20:34.346Z,22.29
2024-05-09T17:22:58.442Z,22.29
2024-05-09T17:25:20.443Z,22.32
2024-05-09T17:27:42.543Z,22.33
2024-05-09T17:30:06.369Z,22.17
2024-05-09T17:32:29.948Z,21.95
2024-05-09T17:34:51.934Z,21.76
2024-05-09T17:37:13.896Z,21.61
2024-05-09T17:39:35.826Z,21.43
2024-05-09T17:41:57.659Z,21.33
2024-05-09T17:44:19.557Z,21.26
2024-05-09T17:46:42.482Z,21.30
2024-05-09T17:49:04.686Z,21.44
2024-05-09T17:51:26.758Z,21.65
2024-05-09T17:53:48.586Z,21.86
2024-05-09T17:56:10.737Z,22.06
2024-05-09T17:58:33.039Z,22.27
2024-05-09T18:00:55.280Z,22.43
2024-05-09T18:03:17.571Z,22.56
2024-05-09T18:05:52.633Z,22.66
2024-05-09T18:08:14.644Z,22.75
2024-05-09T18:11:04.611Z,22.96
2024-05-09T18:13:26.940Z,23.03
2024-05-09T18:15:49.056Z,23.16
2024-05-09T18:18:11.923Z,23.26
2024-05-09T18:20:42.171Z,23.31
2024-05-09T18:23:07.146Z,23.35
2024-05-09T18:25:28.942Z,23.34
2024-05-09T18:27:50.957Z,23.21
2024-05-09T18:30:24.128Z,22.97
2024-05-09T18:32:53.495Z,22.72
2024-05-09T18:35:15.604Z,22.44
2024-05-09T18:37:40.378Z,22.14
2024-05-09T18:40:02.329Z,21.89
2024-05-09T18:42:24.570Z,21.63
2024-05-09T18:44:46.534Z,21.36
2024-05-09T18:47:10.424Z,21.18
2024-05-09T18:49:32.553Z,20.97
2024-05-09T18:51:54.532Z,20.76
2024-05-09T18:54:16.395Z,20.60
2024-05-09T18:56:38.253Z,20.43
2024-05-09T18:59:00.162Z,20.33
2024-05-09T19:01:22.138Z,20.23
2024-05-09T19:03:44.358Z,20.11
2024-05-09T19:06:06.699Z,20.00
2024-05-09T19:08:29.820Z,19.87
2024-05-09T19:10:52.909Z,19.75
2024-05-09T19:13:15.219Z,19.64
2024-05-09T19:15:40.352Z,19.57
2024-05-09T19:18:03.737Z,19.46
2024-05-09T19:20:31.886Z,19.37
2024-05-09T19:22:56.640Z,19.27
2024-05-09T19:25:19.399Z,19.19
2024-05-09T19:27:42.526Z,19.10
2024-05-09T19:30:13.897Z,19.05
2024-05-09T19:32:41.070Z,19.00
2024-05-09T19:35:03.060Z,18.96
2024-05-09T19:37:24.961Z,18.90
2024-05-09T19:39:47.382Z,18.83
2024-05-09T19:42:09.252Z,18.71
2024-05-09T19:44:31.201Z,18.67
2024-05-09T19:46:53.261Z,18.60
2024-05-09T19:49:15.227Z,18.52
2024-05-09T19:52:06.543Z,18.47
2024-05-09T19:54:28.448Z,18.43
2024-05-09T19:56:50.366Z,18.40
2024-05-09T19:59:13.049Z,18.36
2024-05-09T20:01:35.076Z,18.30
2024-05-09T20:03:59.216Z,18.25
2024-05-09T20:06:24.422Z,18.18
2024-05-09T20:08:46.220Z,18.13
2024-05-09T20:11:33.505Z,18.10
2024-05-09T20:13:56.962Z,18.09
2024-05-09T20:16:19.617Z,18.03
2024-05-09T20:18:41.758Z,17.96
2024-05-09T20:21:04.097Z,17.92
2024-05-09T20:23:26.019Z,17.88
2024-05-09T20:25:47.790Z,17.83
2024-05-09T20:28:11.416Z,17.76
2024-05-09T20:30:35.300Z,17.69
2024-05-09T20:32:57.811Z,17.65
2024-05-09T20:35:19.721Z,17.61
2024-05-09T20:37:41.556Z,17.58
2024-05-09T20:40:05.072Z,17.54
2024-05-09T20:42:29.648Z,17.50
2024-05-09T20:44:51.455Z,17.47
2024-05-09T20:47:14.852Z,17.41
2024-05-09T20:49:36.806Z,17.36
2024-05-09T20:51:58.870Z,17.30
2024-05-09T20:54:20.770Z,17.25
2024-05-09T20:56:43.230Z,17.20
2024-05-09T20:59:05.018Z,17.13
2024-05-09T21:01:27.017Z,17.10
2024-05-09T21:03:49.099Z,17.05
2024-05-09T21:06:11.374Z,17.03
2024-05-09T21:08:33.223Z,16.99
2024-05-09T21:10:55.313Z,16.95
2024-05-09T21:13:17.409Z,16.91
2024-05-09T21:15:39.514Z,16.89
2024-05-09T21:18:01.845Z,16.87
2024-05-09T21:20:30.971Z,16.86
2024-05-09T21:22:55.308Z,16.84
2024-05-09T21:25:17.296Z,16.81
2024-05-09T21:27:39.367Z,16.82
2024-05-09T21:30:01.219Z,16.82
2024-05-09T21:32:23.164Z,16.82
2024-05-09T21:34:45.177Z,16.82
2024-05-09T21:37:07.238Z,16.85
2024-05-09T21:39:30.292Z,16.82
2024-05-09T21:41:52.235Z,16.84
2024-05-09T21:44:14.090Z,16.86
2024-05-09T21:46:36.152Z,16.86
2024-05-09T21:48:58.216Z,16.88
2024-05-09T21:51:21.148Z,16.88
2024-05-09T21:53:43.001Z,16.89
2024-05-09T21:56:05.412Z,16.89
2024-05-09T21:58:27.382Z,16.87
2024-05-09T22:00:49.348Z,16.86
2024-05-09T22:03:12.385Z,16.87
2024-05-09T22:05:34.974Z,16.86
2024-05-09T22:07:58.985Z,16.81
2024-05-09T22:10:26.463Z,16.78
2024-05-09T22:12:54.221Z,16.75
2024-05-09T22:15:16.095Z,16.77
2024-05-09T22:17:41.182Z,16.77
2024-05-09T22:20:07.411Z,16.76
2024-05-09T22:22:33.729Z,16.75
2024-05-09T22:24:55.676Z,16.79
2024-05-09T22:27:17.923Z,16.79
2024-05-09T22:29:39.820Z,16.81
2024-05-09T22:32:01.741Z,16.80
2024-05-09T22:34:23.694Z,16.79
2024-05-09T22:36:45.750Z,16.79
2024-05-09T22:39:07.657Z,16.80
2024-05-09T22:41:29.572Z,16.81
2024-05-09T22:43:51.404Z,16.81
2024-05-09T22:46:16.545Z,16.83
2024-05-09T22:48:38.816Z,16.83
2024-05-09T22:51:00.798Z,16.80
2024-05-09T22:53:25.028Z,16.81
2024-05-09T22:55:47.064Z,16.81
2024-05-09T22:58:08.924Z,16.80
2024-05-09T23:00:32.618Z,16.76
2024-05-09T23:02:55.033Z,16.74
2024-05-09T23:05:17.050Z,16.73
2024-05-09T23:07:39.052Z,16.68
2024-05-09T23:10:00.963Z,16.68
2024-05-09T23:12:22.903Z,16.67
2024-05-09T23:14:45.346Z,16.65
2024-05-09T23:17:07.201Z,16.64
2024-05-09T23:19:29.140Z,16.63
2024-05-09T23:21:51.168Z,16.59
2024-05-09T23:24:13.222Z,16.59
2024-05-09T23:26:35.198Z,16.57
2024-05-09T23:28:57.135Z,16.55
2024-05-09T23:31:19.031Z,16.55
2024-05-09T23:33:47.199Z,16.54
2024-05-09T23:36:09.221Z,16.53
2024-05-09T23:38:31.058Z,16.52
2024-05-09T23:40:52.943Z,16.49
2024-05-09T23:43:14.973Z,16.47
2024-05-09T23:45:37.273Z,16.47
2024-05-09T23:47:59.875Z,16.46
2024-05-09T23:50:30.231Z,16.44
2024-05-09T23:52:55.821Z,16.41
2024-05-09T23:55:17.976Z,16.38
2024-05-09T23:57:41.071Z,16.37
